Time;durP1;ratioP1;P1;durP2;ratioP2;P2;SDS_P1;SDS_P2;PMS_P1;PMS_P2;Temp;Humidity;BMP_temperature;BMP_pressure;BME280_temperature;BME280_humidity;BME280_pressure;Samples;Min_cycle;Max_cycle;Signal;HPM_P1;HPM_P2
2021/07/04 00:01:33;;;;;;;11.20;7.15;;;;;;;13.43;99.69;101243.88;5027881;28;20043;-77
2021/07/04 00:03:58;;;;;;;11.43;7.45;;;;;;;13.44;99.66;101237.59;5047014;28;20040;-77
2021/07/04 00:06:24;;;;;;;10.88;7.38;;;;;;;13.43;99.52;101235.97;5034750;28;20033;-78
2021/07/04 00:08:49;;;;;;;9.52;6.82;;;;;;;13.43;99.34;101239.41;5038297;28;20119;-77
2021/07/04 00:11:15;;;;;;;10.10;7.38;;;;;;;13.40;99.71;101234.44;5036860;28;20032;-75
2021/07/04 00:13:41;;;;;;;11.65;7.40;;;;;;;13.39;99.66;101238.06;5034915;28;20087;-76
2021/07/04 00:16:07;;;;;;;11.98;7.88;;;;;;;13.43;99.69;101243.88;5043233;28;20470;-78
2021/07/04 00:18:34;;;;;;;10.73;8.55;;;;;;;13.41;99.18;101238.75;5066682;28;20082;-76
2021/07/04 00:21:03;;;;;;;14.55;8.43;;;;;;;13.40;99.35;101242.34;5050607;28;20059;-77
2021/07/04 00:23:29;;;;;;;12.52;9.43;;;;;;;13.39;99.38;101240.72;5047504;28;20119;-78
2021/07/04 00:26:02;;;;;;;11.82;10.05;;;;;;;13.40;99.83;101249.44;5065077;28;20038;-78
2021/07/04 00:28:27;;;;;;;15.07;10.30;;;;;;;13.39;99.58;101243.34;5046431;28;20753;-76
2021/07/04 00:30:54;;;;;;;14.65;10.15;;;;;;;13.45;100.00;101241.91;5044593;28;20029;-78
2021/07/04 00:33:28;;;;;;;12.43;10.00;;;;;;;13.42;100.00;101227.22;5060028;28;20448;-77
2021/07/04 00:35:54;;;;;;;13.32;10.07;;;;;;;13.41;100.00;101232.63;5053482;28;20019;-77
2021/07/04 00:38:19;;;;;;;11.05;9.55;;;;;;;13.35;100.00;101222.72;5041131;28;20032;-77
2021/07/04 00:40:45;;;;;;;12.00;8.80;;;;;;;13.34;100.00;101234.25;5032500;28;20056;-76
2021/07/04 00:43:11;;;;;;;13.20;9.27;;;;;;;13.33;100.00;101224.69;5053525;28;20154;-78
2021/07/04 00:45:37;;;;;;;13.18;9.82;;;;;;;13.27;100.00;101233.16;5033641;28;20039;-75
2021/07/04 00:48:04;;;;;;;11.32;8.77;;;;;;;13.23;100.00;101225.56;5051818;28;20043;-77
2021/07/04 00:50:30;;;;;;;10.40;8.30;;;;;;;13.22;100.00;101216.00;5067812;28;20040;-77
2021/07/04 00:53:00;;;;;;;13.32;8.63;;;;;;;13.20;100.00;101220.59;5052120;28;20079;-77
2021/07/04 00:55:31;;;;;;;10.32;8.93;;;;;;;13.17;100.00;101217.44;5071133;28;20569;-76
2021/07/04 00:58:03;;;;;;;10.43;8.82;;;;;;;13.11;100.00;101210.13;5056844;28;20794;-76
2021/07/04 01:00:33;;;;;;;11.95;8.63;;;;;;;13.09;100.00;101210.31;5062821;28;20029;-75
2021/07/04 01:03:00;;;;;;;15.15;9.50;;;;;;;13.08;100.00;101215.72;5050594;28;20074;-77
2021/07/04 01:05:29;;;;;;;12.38;9.52;;;;;;;13.08;100.00;101216.53;5031586;28;20033;-75
2021/07/04 01:07:55;;;;;;;13.88;9.52;;;;;;;13.04;100.00;101210.75;5038836;28;20093;-77
2021/07/04 01:10:25;;;;;;;13.93;9.63;;;;;;;13.01;100.00;101207.59;5032895;28;20032;-78
2021/07/04 01:13:00;;;;;;;14.93;10.43;;;;;;;13.02;100.00;101210.06;5040885;28;20036;-77
2021/07/04 01:15:28;;;;;;;10.70;8.90;;;;;;;13.06;100.00;101210.59;5048138;28;20033;-76
2021/07/04 01:17:58;;;;;;;13.57;9.60;;;;;;;13.03;100.00;101208.25;5031376;28;20052;-76
2021/07/04 01:20:26;;;;;;;12.50;9.02;;;;;;;13.04;100.00;101204.66;5048447;28;20421;-76
2021/07/04 01:23:05;;;;;;;10.40;8.75;;;;;;;13.10;100.00;101211.94;5030882;28;20037;-75
2021/07/04 01:25:35;;;;;;;12.18;8.73;;;;;;;13.06;100.00;101207.97;5049187;28;20036;-77
2021/07/04 01:28:02;;;;;;;9.80;8.50;;;;;;;12.96;100.00;101208.03;5063888;28;20079;-77
2021/07/04 01:30:28;;;;;;;11.82;8.40;;;;;;;12.94;100.00;101214.41;5060962;28;20115;-77
2021/07/04 01:32:54;;;;;;;9.57;8.40;;;;;;;12.91;100.00;101214.75;5034842;28;20032;-78
2021/07/04 01:35:21;;;;;;;10.82;8.27;;;;;;;12.86;100.00;101212.53;5044777;28;20036;-76
2021/07/04 01:37:47;;;;;;;10.52;8.32;;;;;;;12.83;100.00;101211.03;5030977;28;20043;-76
2021/07/04 01:40:13;;;;;;;11.43;8.85;;;;;;;12.82;100.00;101204.13;5049496;28;20044;-76
2021/07/04 01:42:42;;;;;;;13.23;8.80;;;;;;;12.75;100.00;101194.34;5064647;28;20476;-76
2021/07/04 01:45:13;;;;;;;10.48;8.88;;;;;;;12.76;100.00;101201.28;5033132;28;20032;-75
2021/07/04 01:47:40;;;;;;;12.45;8.93;;;;;;;12.75;100.00;101197.81;5053525;28;20549;-76
2021/07/04 01:50:11;;;;;;;12.32;9.25;;;;;;;12.70;100.00;101189.53;5032827;28;20133;-75
2021/07/04 01:52:37;;;;;;;11.20;9.75;;;;;;;12.65;100.00;101183.88;5059670;28;20066;-77
2021/07/04 01:55:06;;;;;;;11.30;9.00;;;;;;;12.65;100.00;101189.16;5032879;28;20041;-76
2021/07/04 01:57:32;;;;;;;12.25;9.07;;;;;;;12.61;100.00;101195.69;5046327;28;20036;-75
2021/07/04 02:00:10;;;;;;;16.15;8.60;;;;;;;12.55;100.00;101181.31;5046897;28;20467;-77
2021/07/04 02:02:48;;;;;;;11.77;8.90;;;;;;;12.52;100.00;101191.31;5061568;28;20516;-77
2021/07/04 02:05:20;;;;;;;11.95;9.45;;;;;;;12.50;100.00;101182.75;5032729;28;20767;-77
2021/07/04 02:07:46;;;;;;;11.73;10.02;;;;;;;12.39;100.00;101181.13;5049378;28;20067;-78
2021/07/04 02:10:22;;;;;;;11.18;9.00;;;;;;;12.40;100.00;101188.06;5048852;28;20766;-77
2021/07/04 02:12:48;;;;;;;10.25;8.55;;;;;;;12.36;100.00;101187.53;5047204;28;20044;-77
2021/07/04 02:15:21;;;;;;;10.80;8.95;;;;;;;12.29;100.00;101170.69;5081464;28;20162;-75
2021/07/04 02:18:22;;;;;;;9.65;8.73;;;;;;;12.35;100.00;101187.66;4994044;28;20041;-80
2021/07/04 02:20:55;;;;;;;12.97;9.60;;;;;;;12.28;100.00;101184.78;5039436;28;20044;-76
2021/07/04 02:23:38;;;;;;;11.40;9.57;;;;;;;12.27;100.00;101189.22;5071341;28;20535;-77
2021/07/04 02:26:29;;;;;;;10.70;9.60;;;;;;;12.22;100.00;101173.09;5040107;28;20059;-76
2021/07/04 02:28:59;;;;;;;11.77;9.90;;;;;;;12.26;100.00;101178.84;5037306;28;20029;-77
2021/07/04 02:31:33;;;;;;;11.65;9.57;;;;;;;12.20;100.00;101180.25;5054260;28;20032;-76
2021/07/04 02:33:59;;;;;;;10.90;9.27;;;;;;;12.19;100.00;101186.50;5038205;28;20036;-78
2021/07/04 02:36:29;;;;;;;12.00;9.50;;;;;;;12.13;100.00;101181.00;5043617;28;20029;-76
2021/07/04 02:38:59;;;;;;;12.43;9.52;;;;;;;12.18;100.00;101184.03;5037535;28;20044;-77
2021/07/04 02:41:25;;;;;;;12.18;10.00;;;;;;;12.17;100.00;101183.22;5052221;28;20034;-77
2021/07/04 02:43:51;;;;;;;11.68;9.80;;;;;;;12.11;100.00;101188.22;5037037;28;20414;-78
2021/07/04 02:46:18;;;;;;;11.32;10.13;;;;;;;12.11;100.00;101188.22;5030388;28;20025;-76
2021/07/04 02:48:44;;;;;;;11.60;9.70;;;;;;;12.06;100.00;101194.72;5050958;28;20043;-76
2021/07/04 02:51:09;;;;;;;13.73;9.70;;;;;;;12.01;100.00;101188.25;5054428;28;20071;-76
2021/07/04 02:53:36;;;;;;;12.63;9.65;;;;;;;11.93;100.00;101182.91;5037423;28;20089;-77
2021/07/04 02:56:09;;;;;;;12.52;10.15;;;;;;;11.96;100.00;101182.59;5037626;28;20040;-75
2021/07/04 02:58:37;;;;;;;10.45;9.43;;;;;;;11.92;100.00;101186.50;5053702;28;20491;-78
2021/07/04 03:01:03;;;;;;;14.20;10.20;;;;;;;11.97;100.00;101184.25;5057732;28;20044;-75
2021/07/04 03:03:29;;;;;;;11.38;9.88;;;;;;;11.89;100.00;101187.59;5051512;28;20028;-76
2021/07/04 03:05:56;;;;;;;12.95;10.05;;;;;;;11.82;100.00;101187.31;5052117;28;20415;-74
2021/07/04 03:08:21;;;;;;;10.38;9.20;;;;;;;11.83;100.00;101189.00;5054408;28;20025;-76
2021/07/04 03:10:48;;;;;;;10.20;9.20;;;;;;;11.87;100.00;101189.53;5054645;28;20106;-78
2021/07/04 03:13:18;;;;;;;14.90;9.80;;;;;;;11.87;100.00;101192.16;5052676;28;20028;-77
2021/07/04 03:15:44;;;;;;;13.68;9.95;;;;;;;11.87;100.00;101186.91;5035683;28;20059;-75
2021/07/04 03:18:11;;;;;;;12.63;9.90;;;;;;;11.90;100.00;101186.63;5068281;28;20039;-77
2021/07/04 03:20:39;;;;;;;13.15;10.02;;;;;;;11.86;100.00;101174.72;5068231;28;20028;-74
2021/07/04 03:23:08;;;;;;;13.05;11.65;;;;;;;11.94;100.00;101184.53;5036979;28;20036;-76
2021/07/04 03:25:35;;;;;;;13.57;10.85;;;;;;;11.95;100.00;101186.22;5049647;28;20033;-77
2021/07/04 03:28:03;;;;;;;13.90;10.43;;;;;;;11.87;100.00;101185.09;5068328;28;20024;-75
2021/07/04 03:30:29;;;;;;;10.55;9.45;;;;;;;11.85;100.00;101179.16;5051475;28;20039;-76
2021/07/04 03:32:54;;;;;;;11.10;9.20;;;;;;;11.88;100.00;101184.13;5049511;28;20033;-77
2021/07/04 03:35:26;;;;;;;10.88;9.50;;;;;;;11.93;100.00;101178.47;5068482;28;20028;-77
2021/07/04 03:37:56;;;;;;;12.43;10.30;;;;;;;11.93;100.00;101181.09;5051616;28;20040;-76
2021/07/04 03:40:21;;;;;;;10.18;9.15;;;;;;;12.00;100.00;101184.00;5037380;28;20028;-78
2021/07/04 03:42:52;;;;;;;14.50;9.93;;;;;;;12.03;100.00;101178.41;5056010;28;20063;-77
2021/07/04 03:45:22;;;;;;;12.43;9.13;;;;;;;12.05;100.00;101179.94;5052971;28;20127;-78
2021/07/04 03:47:49;;;;;;;12.45;8.77;;;;;;;12.13;100.00;101192.38;5046654;28;20032;-75
2021/07/04 03:50:18;;;;;;;12.68;9.65;;;;;;;12.18;100.00;101184.03;5033229;28;20561;-77
2021/07/04 03:52:48;;;;;;;13.00;9.40;;;;;;;12.17;100.00;101185.84;5038607;28;20033;-77
2021/07/04 03:55:15;;;;;;;12.30;10.25;;;;;;;12.19;100.00;101180.44;5050601;28;20127;-76
2021/07/04 03:57:43;;;;;;;11.05;9.30;;;;;;;12.23;100.00;101182.63;5052606;28;20037;-77
2021/07/04 04:00:24;;;;;;;13.25;10.90;;;;;;;12.29;100.00;101183.81;5051527;28;20032;-77
2021/07/04 04:02:58;;;;;;;11.27;9.90;;;;;;;12.35;100.00;101177.16;5051947;28;20048;-78
2021/07/04 04:05:37;;;;;;;11.27;9.13;;;;;;;12.41;100.00;101182.66;5037767;28;20032;-77
2021/07/04 04:08:06;;;;;;;14.98;10.38;;;;;;;12.48;100.00;101180.25;5053696;28;20044;-77
2021/07/04 04:10:34;;;;;;;12.68;9.10;;;;;;;12.57;100.00;101192.53;5053139;28;20085;-76
2021/07/04 04:13:04;;;;;;;10.07;8.68;;;;;;;12.64;100.00;101188.31;5048352;28;20086;-76
2021/07/04 04:15:33;;;;;;;16.92;9.40;;;;;;;12.72;100.00;101190.22;5068902;28;20090;-75
2021/07/04 04:17:58;;;;;;;11.63;9.60;;;;;;;12.79;100.00;101190.41;5052564;28;20498;-76
2021/07/04 04:20:25;;;;;;;13.68;10.70;;;;;;;12.86;100.00;101191.47;5057996;28;20063;-77
2021/07/04 04:22:52;;;;;;;13.82;12.07;;;;;;;12.93;100.00;101184.63;5038310;28;20036;-77
2021/07/04 04:25:18;;;;;;;13.82;12.32;;;;;;;13.01;100.00;101182.06;5052858;28;20078;-76
2021/07/04 04:27:45;;;;;;;19.40;11.90;;;;;;;13.16;100.00;101185.00;5035352;28;20476;-76
2021/07/04 04:30:16;;;;;;;15.90;11.30;;;;;;;13.21;100.00;101184.56;5053132;28;20029;-77
2021/07/04 04:32:45;;;;;;;15.73;13.48;;;;;;;13.28;100.00;101185.59;5051881;28;20032;-76
2021/07/04 04:35:11;;;;;;;13.48;11.48;;;;;;;13.35;100.00;101186.66;5032155;28;20379;-77
2021/07/04 04:37:38;;;;;;;14.60;12.80;;;;;;;13.47;100.00;101183.75;5037578;28;20028;-77
2021/07/04 04:40:06;;;;;;;14.40;11.60;;;;;;;13.66;100.00;101201.19;5052929;28;20494;-75
2021/07/04 04:42:34;;;;;;;14.85;12.63;;;;;;;13.76;100.00;101200.09;5049006;28;20075;-76
2021/07/04 04:44:59;;;;;;;16.17;12.80;;;;;;;13.85;100.00;101195.69;5067052;28;20036;-76
2021/07/04 04:47:25;;;;;;;13.25;11.82;;;;;;;13.87;100.00;101191.09;5037667;28;20410;-78
2021/07/04 04:49:50;;;;;;;14.23;12.55;;;;;;;13.86;100.00;101192.06;5051070;28;20040;-75
2021/07/04 04:52:16;;;;;;;13.90;11.70;;;;;;;13.91;100.00;101189.78;5052516;28;20071;-77
2021/07/04 04:54:41;;;;;;;15.85;11.40;;;;;;;14.07;100.00;101190.84;5051737;28;20024;-77
2021/07/04 04:57:07;;;;;;;16.48;13.77;;;;;;;14.19;100.00;101187.78;5034944;28;20093;-78
2021/07/04 04:59:34;;;;;;;17.33;13.15;;;;;;;14.35;100.00;101181.75;5031800;28;20036;-78
2021/07/04 05:02:00;;;;;;;15.23;12.90;;;;;;;14.46;100.00;101177.13;5047675;28;20402;-79
2021/07/04 05:04:27;;;;;;;17.77;12.13;;;;;;;14.62;99.88;101185.13;5034666;28;20502;-77
2021/07/04 05:06:53;;;;;;;14.43;12.02;;;;;;;14.74;98.84;101189.09;5034782;28;20123;-78
2021/07/04 05:09:18;;;;;;;14.10;11.32;;;;;;;14.84;98.25;101182.84;5052657;28;20565;-76
2021/07/04 05:11:44;;;;;;;12.43;10.52;;;;;;;14.93;97.20;101177.38;5049727;28;20069;-78
2021/07/04 05:14:11;;;;;;;15.30;10.63;;;;;;;14.97;97.53;101178.72;5034268;28;20803;-78
2021/07/04 05:16:37;;;;;;;13.75;10.23;;;;;;;15.01;97.42;101176.56;5050446;28;20028;-75
2021/07/04 05:19:06;;;;;;;11.77;10.07;;;;;;;15.09;97.44;101168.66;5051077;28;20051;-76
2021/07/04 05:21:35;;;;;;;10.05;9.05;;;;;;;15.28;96.95;101180.69;5050572;28;20043;-77
2021/07/04 05:24:02;;;;;;;12.98;9.35;;;;;;;15.41;96.12;101177.56;5033094;28;20124;-78
2021/07/04 05:26:28;;;;;;;12.23;9.35;;;;;;;15.53;95.15;101164.78;5057834;28;20021;-76
2021/07/04 05:28:55;;;;;;;13.32;9.00;;;;;;;15.76;94.84;101170.22;5048779;28;20401;-78
2021/07/04 05:31:22;;;;;;;10.30;8.68;;;;;;;15.80;93.43;101163.59;5050842;28;20418;-77
2021/07/04 05:33:47;;;;;;;10.25;8.27;;;;;;;15.89;93.74;101169.69;5050316;28;20119;-77
2021/07/04 05:36:13;;;;;;;9.32;8.32;;;;;;;16.02;94.12;101171.78;5031364;28;20136;-75
2021/07/04 05:38:40;;;;;;;10.20;7.45;;;;;;;16.18;92.56;101174.38;5064518;28;20486;-75
2021/07/04 05:41:06;;;;;;;10.45;7.43;;;;;;;16.33;90.63;101164.69;5065886;28;20035;-77
2021/07/04 05:43:32;;;;;;;8.35;6.50;;;;;;;16.46;88.94;101173.88;5066986;28;20036;-77
2021/07/04 05:45:59;;;;;;;8.57;7.10;;;;;;;16.59;89.19;101170.66;5049473;28;20091;-78
2021/07/04 05:48:26;;;;;;;12.35;7.43;;;;;;;16.68;88.16;101164.31;5047287;28;20143;-76
2021/07/04 05:50:51;;;;;;;9.77;6.72;;;;;;;16.74;87.65;101164.44;5064459;28;20031;-76
2021/07/04 05:53:17;;;;;;;8.95;6.82;;;;;;;16.86;86.95;101167.50;5050543;28;20032;-75
2021/07/04 05:55:43;;;;;;;10.05;6.93;;;;;;;17.00;86.38;101165.91;5046469;28;20041;-75
2021/07/04 05:58:09;;;;;;;8.25;6.85;;;;;;;17.06;86.90;101167.84;5049473;28;20100;-79
2021/07/04 06:00:36;;;;;;;9.10;6.63;;;;;;;17.19;88.37;101164.56;5049700;28;20115;-78
2021/07/04 06:03:02;;;;;;;7.32;6.53;;;;;;;17.21;88.28;101162.56;5035997;28;20032;-78
2021/07/04 06:05:27;;;;;;;11.02;6.40;;;;;;;17.41;86.32;101159.41;5056017;28;20043;-78
2021/07/04 06:07:53;;;;;;;8.55;6.43;;;;;;;17.52;86.95;101151.81;5052879;28;20033;-80
2021/07/04 06:10:19;;;;;;;7.63;6.80;;;;;;;17.77;86.05;101164.81;5067488;28;20099;-77
2021/07/04 06:12:44;;;;;;;6.50;5.90;;;;;;;17.86;84.51;101163.75;5053979;28;20120;-77
2021/07/04 06:15:11;;;;;;;6.25;5.65;;;;;;;17.93;82.79;101163.00;5052391;28;20036;-77
2021/07/04 06:17:37;;;;;;;7.63;5.43;;;;;;;18.01;82.57;101166.38;5084504;28;20471;-78
2021/07/04 06:20:08;;;;;;;6.25;5.45;;;;;;;18.17;81.71;101162.69;5036502;28;20071;-77
2021/07/04 06:22:35;;;;;;;14.65;5.97;;;;;;;18.28;80.92;101166.69;5086937;28;20809;-77
2021/07/04 06:25:01;;;;;;;8.65;6.15;;;;;;;18.39;80.96;101168.06;5068789;28;20801;-77
2021/07/04 06:27:27;;;;;;;7.15;5.57;;;;;;;18.40;80.91;101159.06;5030892;28;20033;-76
2021/07/04 06:29:52;;;;;;;6.68;5.70;;;;;;;18.57;79.45;101167.63;5049778;28;20037;-76
2021/07/04 06:32:18;;;;;;;5.97;4.72;;;;;;;18.74;78.11;101162.88;5061782;28;20029;-76
2021/07/04 06:34:44;;;;;;;6.82;5.10;;;;;;;18.83;76.67;101153.78;5051080;28;20033;-76
2021/07/04 06:37:09;;;;;;;10.60;5.32;;;;;;;18.96;78.40;101158.41;5071782;28;20040;-74
2021/07/04 06:39:35;;;;;;;7.35;4.90;;;;;;;18.96;77.88;101151.25;5063169;28;20438;-76
2021/07/04 06:42:00;;;;;;;5.13;4.35;;;;;;;19.13;77.29;101151.78;5061713;28;20037;-78
2021/07/04 06:44:26;;;;;;;5.40;4.55;;;;;;;19.20;76.03;101154.50;5049452;28;20029;-75
2021/07/04 06:46:53;;;;;;;8.65;4.20;;;;;;;19.27;76.76;101155.38;5045624;28;20044;-75
2021/07/04 06:49:18;;;;;;;6.68;3.55;;;;;;;19.43;75.12;101156.91;5066491;28;20040;-78
2021/07/04 06:51:44;;;;;;;10.32;4.28;;;;;;;19.54;75.08;101161.69;5048139;28;20029;-78
2021/07/04 06:54:10;;;;;;;5.28;4.18;;;;;;;19.60;74.83;101157.41;5051837;28;20032;-75
2021/07/04 06:56:35;;;;;;;4.25;3.67;;;;;;;19.75;71.67;101160.00;5062460;28;20449;-79
2021/07/04 06:59:01;;;;;;;4.47;3.85;;;;;;;19.83;71.74;101154.50;5037847;28;20409;-78
2021/07/04 07:01:26;;;;;;;7.25;3.92;;;;;;;19.98;73.09;101159.69;5052086;28;20067;-78
2021/07/04 07:03:52;;;;;;;4.30;3.90;;;;;;;20.11;71.58;101156.25;5053932;28;20581;-78
2021/07/04 07:06:17;;;;;;;5.57;3.88;;;;;;;20.26;72.00;101153.44;5071404;28;20313;-76
2021/07/04 07:08:44;;;;;;;4.25;3.85;;;;;;;20.42;70.75;101159.22;5073416;28;20082;-75
2021/07/04 07:11:09;;;;;;;7.05;3.38;;;;;;;20.52;69.73;101145.50;5042140;28;20045;-75
2021/07/04 07:13:35;;;;;;;4.38;3.42;;;;;;;20.66;68.50;101153.53;5039325;28;20108;-77
2021/07/04 07:16:00;;;;;;;6.40;3.50;;;;;;;20.71;69.00;101145.78;5031239;28;20035;-76
2021/07/04 07:18:26;;;;;;;4.10;3.70;;;;;;;20.80;68.80;101157.88;5074045;28;20119;-77
2021/07/04 07:20:52;;;;;;;4.72;3.78;;;;;;;20.91;68.63;101145.78;5076454;28;20052;-76
2021/07/04 07:23:17;;;;;;;5.50;3.50;;;;;;;21.02;66.97;101149.66;5056022;28;20067;-76
2021/07/04 07:25:44;;;;;;;3.88;3.47;;;;;;;21.00;66.15;101149.88;5042506;28;20039;-76
2021/07/04 07:28:09;;;;;;;5.45;3.40;;;;;;;21.08;68.40;101143.50;5058146;28;20060;-77
2021/07/04 07:30:43;;;;;;;5.18;4.10;;;;;;;21.24;65.57;101137.75;5041442;28;20043;-79
2021/07/04 07:33:09;;;;;;;4.65;3.30;;;;;;;21.30;66.38;101138.75;5041584;28;20398;-77
2021/07/04 07:35:35;;;;;;;3.78;3.20;;;;;;;21.44;64.45;101134.25;5054368;28;20040;-78
2021/07/04 07:38:03;;;;;;;4.28;3.40;;;;;;;21.50;65.95;101144.09;5053710;28;20032;-76
2021/07/04 07:40:35;;;;;;;4.40;3.30;;;;;;;21.65;68.40;101136.66;5054374;28;20162;-78
2021/07/04 07:43:02;;;;;;;3.53;3.22;;;;;;;21.81;65.70;101138.03;5037486;28;20032;-77
2021/07/04 07:45:27;;;;;;;5.25;3.22;;;;;;;21.83;62.64;101140.50;5037258;28;20042;-78
2021/07/04 07:47:58;;;;;;;4.03;2.90;;;;;;;21.89;64.65;101143.16;5063069;28;20082;-77
2021/07/04 07:50:26;;;;;;;5.55;3.00;;;;;;;21.99;64.22;101148.03;5050336;28;20129;-76
2021/07/04 07:52:52;;;;;;;4.13;3.05;;;;;;;22.08;62.71;101133.41;5052115;28;20038;-76
2021/07/04 07:55:17;;;;;;;5.18;2.80;;;;;;;22.06;63.28;101138.16;5033960;28;20043;-78
2021/07/04 07:57:43;;;;;;;4.45;3.10;;;;;;;22.04;60.69;101142.88;5067576;28;20151;-77
2021/07/04 08:00:11;;;;;;;3.38;2.60;;;;;;;22.07;64.03;101136.28;5071800;28;20517;-78
2021/07/04 08:02:44;;;;;;;3.78;2.85;;;;;;;22.04;61.57;101148.22;5069098;28;20516;-78
2021/07/04 08:05:17;;;;;;;2.90;2.70;;;;;;;21.94;61.01;101139.84;5029562;28;20062;-76
2021/07/04 08:07:42;;;;;;;4.47;3.00;;;;;;;21.81;63.51;101138.03;5082471;28;20036;-76
2021/07/04 08:10:08;;;;;;;5.90;2.55;;;;;;;21.65;62.77;101138.50;5037171;28;20037;-78
2021/07/04 08:12:35;;;;;;;5.03;3.13;;;;;;;21.56;62.75;101141.41;5033657;28;20059;-76
2021/07/04 08:15:00;;;;;;;6.20;3.08;;;;;;;21.62;66.29;101136.25;5035778;28;20032;-76
2021/07/04 08:17:26;;;;;;;3.63;2.83;;;;;;;21.80;64.64;101135.59;5032980;28;20051;-77
2021/07/04 08:19:51;;;;;;;4.38;3.00;;;;;;;21.97;63.94;101136.75;5071751;28;20413;-77
2021/07/04 08:22:17;;;;;;;4.95;3.28;;;;;;;22.14;62.37;101139.75;5033467;28;20025;-78
2021/07/04 08:24:42;;;;;;;5.15;2.78;;;;;;;22.20;66.01;101144.22;5049642;28;20497;-76
2021/07/04 08:27:08;;;;;;;3.20;3.00;;;;;;;22.22;64.21;101131.47;5069686;28;20551;-77
2021/07/04 08:29:33;;;;;;;3.55;2.90;;;;;;;22.40;64.24;101129.97;5034747;28;20044;-77
2021/07/04 08:32:00;;;;;;;4.45;3.15;;;;;;;22.61;62.21;101140.31;5034840;28;20199;-77
2021/07/04 08:34:25;;;;;;;4.05;3.10;;;;;;;22.77;60.60;101125.56;5032193;28;20491;-76
2021/07/04 08:36:52;;;;;;;5.63;3.35;;;;;;;22.72;59.76;101133.44;5051104;28;20027;-76
2021/07/04 08:39:17;;;;;;;8.95;3.55;;;;;;;22.53;62.97;101124.53;5049780;28;20033;-76
2021/07/04 08:41:43;;;;;;;6.32;3.00;;;;;;;22.72;62.26;101122.75;5049029;28;20125;-77
2021/07/04 08:44:09;;;;;;;4.07;3.20;;;;;;;23.00;60.54;101113.44;5035427;28;20037;-78
2021/07/04 08:46:40;;;;;;;3.95;3.55;;;;;;;23.29;59.63;101109.28;5079118;28;20857;-76
2021/07/04 08:49:06;;;;;;;5.07;3.50;;;;;;;23.47;61.93;101106.63;5051998;28;20085;-77
2021/07/04 08:51:31;;;;;;;4.13;3.22;;;;;;;23.55;56.55;101107.38;5053174;28;20134;-78
2021/07/04 08:53:57;;;;;;;4.07;3.30;;;;;;;23.61;58.73;101101.91;5052215;28;20036;-77
2021/07/04 08:56:22;;;;;;;4.07;3.50;;;;;;;23.73;61.62;101098.50;5039734;28;20028;-75
2021/07/04 08:58:48;;;;;;;5.22;3.88;;;;;;;23.85;55.96;101096.72;5030908;28;20032;-79
2021/07/04 09:01:20;;;;;;;4.07;3.63;;;;;;;23.80;56.29;101096.59;5064254;28;20039;-79
2021/07/04 09:04:10;;;;;;;4.50;3.20;;;;;;;23.92;56.95;101104.66;5068597;28;20071;-79
2021/07/04 09:06:43;;;;;;;4.43;3.53;;;;;;;23.99;56.34;101102.72;5046833;28;20036;-77
2021/07/04 09:09:16;;;;;;;4.85;3.35;;;;;;;24.02;58.86;101097.72;5042801;28;20494;-78
2021/07/04 09:12:02;;;;;;;3.97;3.42;;;;;;;24.22;56.71;101107.34;5068360;28;20077;-77
2021/07/04 09:14:39;;;;;;;5.10;3.53;;;;;;;24.51;55.26;101088.78;5052157;28;20115;-78
2021/07/04 09:17:09;;;;;;;4.75;3.65;;;;;;;24.46;56.07;101092.94;5062182;28;20020;-78
2021/07/04 09:19:37;;;;;;;5.40;3.67;;;;;;;24.20;53.63;101096.03;5057711;28;20020;-79
2021/07/04 09:22:08;;;;;;;4.45;4.05;;;;;;;24.00;53.30;101097.13;5083468;28;20394;-77
2021/07/04 09:24:36;;;;;;;4.87;3.60;;;;;;;24.21;54.19;101095.00;5048270;28;20152;-77
2021/07/04 09:27:03;;;;;;;5.65;3.70;;;;;;;24.39;53.54;101092.25;5040558;28;20036;-79
2021/07/04 09:29:47;;;;;;;4.10;3.22;;;;;;;24.49;52.92;101084.44;5032917;28;20040;-78
2021/07/04 09:32:17;;;;;;;6.57;3.70;;;;;;;24.48;53.83;101084.66;5046447;28;20041;-78
2021/07/04 09:34:55;;;;;;;6.70;3.15;;;;;;;24.40;53.90;101085.81;5042235;28;20032;-78
2021/07/04 09:37:32;;;;;;;4.60;3.85;;;;;;;24.47;51.68;101086.53;5034550;28;20031;-75
2021/07/04 09:40:24;;;;;;;5.50;3.72;;;;;;;24.31;48.93;101087.19;5051531;28;20131;-78
2021/07/04 09:43:07;;;;;;;5.03;3.60;;;;;;;24.28;50.83;101085.00;5068649;28;20040;-77
2021/07/04 09:45:41;;;;;;;6.80;3.95;;;;;;;24.32;50.33;101079.97;5067492;28;20032;-78
2021/07/04 09:48:07;;;;;;;5.72;3.38;;;;;;;24.44;49.46;101070.91;5029409;28;20461;-78
2021/07/04 09:50:47;;;;;;;6.15;3.90;;;;;;;24.56;50.20;101072.81;5048430;28;20053;-77
2021/07/04 09:53:14;;;;;;;4.85;3.60;;;;;;;24.59;56.47;101075.06;5028262;28;20421;-78
2021/07/04 09:55:40;;;;;;;5.47;3.45;;;;;;;24.65;50.33;101064.19;5051615;28;20070;-78
2021/07/04 09:58:08;;;;;;;3.65;3.35;;;;;;;24.70;52.06;101076.13;5068295;28;20086;-78
2021/07/04 10:00:37;;;;;;;4.53;3.67;;;;;;;24.67;50.18;101066.66;5051594;28;20040;-76
2021/07/04 10:03:08;;;;;;;5.10;3.58;;;;;;;24.58;51.74;101068.03;5067977;28;20759;-78
2021/07/04 10:05:35;;;;;;;5.25;3.72;;;;;;;24.60;53.06;101071.31;5068182;28;20055;-77
2021/07/04 10:08:00;;;;;;;5.93;3.72;;;;;;;24.54;51.04;101067.69;5065726;28;20043;-77
2021/07/04 10:10:26;;;;;;;5.30;3.83;;;;;;;24.40;55.24;101061.69;5033306;28;20029;-78
2021/07/04 10:12:54;;;;;;;5.43;4.03;;;;;;;24.31;51.80;101064.94;5067421;28;20631;-78
2021/07/04 10:15:20;;;;;;;6.65;3.85;;;;;;;24.19;52.42;101064.94;5033565;28;20783;-78
2021/07/04 10:17:46;;;;;;;7.68;4.10;;;;;;;24.21;51.76;101060.16;5036272;28;20078;-78
2021/07/04 10:20:12;;;;;;;6.78;3.88;;;;;;;24.38;51.51;101055.75;5037955;28;20437;-78
2021/07/04 10:22:38;;;;;;;7.10;3.95;;;;;;;24.61;49.99;101055.00;5067537;28;20054;-76
2021/07/04 10:25:06;;;;;;;3.80;3.40;;;;;;;24.72;48.86;101055.25;5050647;28;20036;-77
2021/07/04 10:27:36;;;;;;;4.40;3.85;;;;;;;24.69;49.31;101053.81;5033969;28;20094;-78
2021/07/04 10:30:05;;;;;;;8.23;4.05;;;;;;;24.66;48.77;101047.06;5067336;28;20743;-78
2021/07/04 10:32:31;;;;;;;7.25;3.83;;;;;;;24.59;52.35;101045.56;5029333;28;20040;-78
2021/07/04 10:35:06;;;;;;;4.60;4.07;;;;;;;24.55;56.52;101050.56;5072374;28;20497;-77
2021/07/04 10:37:34;;;;;;;5.05;4.15;;;;;;;24.63;51.85;101046.72;5060846;28;20040;-79
2021/07/04 10:40:11;;;;;;;4.97;3.70;;;;;;;24.58;52.65;101043.91;5052942;28;20037;-77
2021/07/04 10:42:38;;;;;;;4.78;3.60;;;;;;;24.60;52.39;101048.00;5052318;28;20032;-79
2021/07/04 10:45:28;;;;;;;5.28;3.55;;;;;;;24.49;53.98;101038.88;5055889;28;20046;-77
2021/07/04 10:47:57;;;;;;;4.47;3.72;;;;;;;24.53;57.56;101035.75;5050565;28;20449;-81
2021/07/04 10:50:23;;;;;;;7.30;4.25;;;;;;;24.53;51.55;101041.13;5068398;28;20101;-77
2021/07/04 10:52:50;;;;;;;8.15;3.45;;;;;;;24.54;50.77;101035.50;5075514;28;20028;-78
2021/07/04 10:55:29;;;;;;;4.38;3.95;;;;;;;24.38;49.88;101036.19;5054430;28;20440;-77
2021/07/04 10:57:57;;;;;;;5.18;3.60;;;;;;;24.24;51.85;101024.84;5057220;28;20064;-77
2021/07/04 11:00:33;;;;;;;5.95;4.00;;;;;;;24.18;51.13;101020.41;5071564;28;20040;-78
2021/07/04 11:03:00;;;;;;;6.38;4.10;;;;;;;24.29;50.59;101025.78;5065359;28;20050;-77
2021/07/04 11:05:35;;;;;;;10.20;3.72;;;;;;;24.37;50.37;101021.94;5052859;28;20041;-77
2021/07/04 11:08:01;;;;;;;4.35;3.95;;;;;;;24.42;52.36;101023.94;5062577;28;20046;-76
2021/07/04 11:10:29;;;;;;;5.10;4.20;;;;;;;24.47;50.04;101029.44;5059202;28;20487;-77
2021/07/04 11:13:07;;;;;;;4.88;4.30;;;;;;;24.72;49.02;101023.06;5043178;28;20036;-77
2021/07/04 11:15:33;;;;;;;6.18;3.72;;;;;;;25.02;50.36;101022.91;5031878;28;20044;-76
2021/07/04 11:18:08;;;;;;;4.63;3.92;;;;;;;25.47;47.98;101021.41;5053654;28;20033;-78
2021/07/04 11:20:40;;;;;;;6.43;4.07;;;;;;;25.76;46.91;101025.72;5061915;28;20025;-77
2021/07/04 11:23:12;;;;;;;4.72;3.78;;;;;;;26.46;48.51;101020.19;5050391;28;20064;-76